Bookmark and Share
Track history (hours):
 

Valtellina

Last reported at 2014-Apr-17 23:05 UTC. Time now 2014-Apr-20 11:36 UTC.
Position N 37°31' W 000°55'.

Length 184 m; draft 7.2 m.

Type: Ship. MMSI: 247243900.

NotesDate/timePositionNaut miles runAvg speedWind from/ knotsBaromVisibWave heightAir tempDewpointWater temp
2014-Apr-17 23:05N 37°31' W 000°55'812.5
2014-Apr-17 22:26N 37°31' W 000°45'7 7.8
2014-Apr-17 21:32N 37°31' W 000°36'1212.2
2014-Apr-17 20:33N 37°34' W 000°22'122 9.1
2014-Apr-17 07:07N 38°37' E 001°51'5 8.5
2014-Apr-17 06:33N 38°41' E 001°54'8 8.3
2014-Apr-17 05:32N 38°48' E 001°59'8 8.4
2014-Apr-17 04:33N 38°55' E 002°04'8 8.4
2014-Apr-17 03:33N 39°01' E 002°12'8 8.3
2014-Apr-17 02:33N 39°08' E 002°18'9 8.6
2014-Apr-17 01:33N 39°15' E 002°24'9 8.6
2014-Apr-17 00:33N 39°22' E 002°30'9 8.5
2014-Apr-16 23:33N 39°29' E 002°36'4 4.2
2014-Apr-16 22:33N 39°33' E 002°38'0 0.0
2014-Apr-16 21:31N 39°33' E 002°38'0 0.0
2014-Apr-16 20:33N 39°33' E 002°38'0 0.0
2014-Apr-16 19:31N 39°33' E 002°38'0 0.0
2014-Apr-16 18:28N 39°33' E 002°38'0 0.0
2014-Apr-16 15:31N 39°33' E 002°38'0 0.0
2014-Apr-16 14:31N 39°33' E 002°38'0 0.0
2014-Apr-16 12:31N 39°33' E 002°38'0 0.0
2014-Apr-16 11:28N 39°33' E 002°38'0 0.0
2014-Apr-16 10:31N 39°33' E 002°38'0 0.0
2014-Apr-16 09:22N 39°33' E 002°38'0 0.0
2014-Apr-16 08:31N 39°33' E 002°38'0 0.0
2014-Apr-16 07:31N 39°33' E 002°38'0 0.0
2014-Apr-16 06:31N 39°33' E 002°38'0 0.0
2014-Apr-16 05:31N 39°33' E 002°38'0 0.0
2014-Apr-16 04:31N 39°33' E 002°38'0 0.0
2014-Apr-16 03:31N 39°33' E 002°38'0 0.0
2014-Apr-16 02:31N 39°33' E 002°38'0 0.0
2014-Apr-16 01:28N 39°33' E 002°38'0 0.0
2014-Apr-16 00:31N 39°33' E 002°38'0 0.0
2014-Apr-15 23:31N 39°33' E 002°38'0 0.0
2014-Apr-15 22:31N 39°33' E 002°38'0 0.0
2014-Apr-15 21:31N 39°33' E 002°38'0 0.0
2014-Apr-15 20:31N 39°33' E 002°38'0 0.0
2014-Apr-15 19:31N 39°33' E 002°38'0 0.0
2014-Apr-15 18:31N 39°33' E 002°38'0 0.0
2014-Apr-15 16:28N 39°33' E 002°38'0 0.0
2014-Apr-15 15:31N 39°33' E 002°38'0 0.0
2014-Apr-15 14:31N 39°33' E 002°38'0 0.0
2014-Apr-15 12:32N 39°33' E 002°38'0 0.0
2014-Apr-15 11:32N 39°33' E 002°38'0 0.0
2014-Apr-15 10:32N 39°33' E 002°38'0 0.0
2014-Apr-15 09:32N 39°33' E 002°38'0 0.0
2014-Apr-15 08:32N 39°33' E 002°38'0 0.0
2014-Apr-15 07:32N 39°33' E 002°38'0 0.0
2014-Apr-15 06:32N 39°33' E 002°38'0 0.0
2014-Apr-15 05:32N 39°33' E 002°38'0 0.0
2014-Apr-15 03:32N 39°33' E 002°38'0 0.0
2014-Apr-15 02:32N 39°33' E 002°38'0 0.0
2014-Apr-15 01:32N 39°33' E 002°38'0 0.0
2014-Apr-14 23:32N 39°33' E 002°38'0 0.0
2014-Apr-14 22:32N 39°33' E 002°38'0 0.0
2014-Apr-14 21:31N 39°33' E 002°38'0 0.0
2014-Apr-14 20:31N 39°33' E 002°38'0 0.0
2014-Apr-14 19:31N 39°33' E 002°38'0 0.0
2014-Apr-14 18:31N 39°33' E 002°38'0 0.0
2014-Apr-14 17:31N 39°33' E 002°38'0 0.0
2014-Apr-14 16:31N 39°33' E 002°38'0 0.0
2014-Apr-14 15:31N 39°33' E 002°38'0 0.0
2014-Apr-14 14:31N 39°33' E 002°38'0 0.0
2014-Apr-14 13:31N 39°33' E 002°38'0 0.0
2014-Apr-14 11:31N 39°33' E 002°38'0 0.0
2014-Apr-14 10:31N 39°33' E 002°38'0 0.0
2014-Apr-14 08:31N 39°33' E 002°38'0 0.0
2014-Apr-14 07:31N 39°33' E 002°38'0 0.0
2014-Apr-14 06:31N 39°33' E 002°38'0 0.0
2014-Apr-14 05:31N 39°33' E 002°38'61 8.7
2014-Apr-13 22:34N 39°01' E 003°45'1312.5
2014-Apr-13 21:34N 39°00' E 004°01'20112.4
2014-Apr-13 05:23N 38°48' E 008°19'1212.6
2014-Apr-13 04:27N 38°48' E 008°34'1112.5
2014-Apr-13 03:33N 38°49' E 008°48'1211.9
2014-Apr-13 02:33N 38°55' E 009°01'1110.6
2014-Apr-13 01:33N 39°05' E 009°05'2 2.1
2014-Apr-13 00:31N 39°05' E 009°02'0 0.0
2014-Apr-12 23:31N 39°05' E 009°02'0 0.0
2014-Apr-12 22:31N 39°05' E 009°02'0 0.0
2014-Apr-12 21:31N 39°05' E 009°02'0 0.0
2014-Apr-12 20:31N 39°05' E 009°02'0 0.0
2014-Apr-12 19:31N 39°05' E 009°02'0 0.0
2014-Apr-12 18:31N 39°05' E 009°02'0 0.0
2014-Apr-12 17:31N 39°05' E 009°02'0 0.0
2014-Apr-12 16:31N 39°05' E 009°02'0 0.0
2014-Apr-12 15:31N 39°05' E 009°02'0 0.0
2014-Apr-12 14:31N 39°05' E 009°02'0 0.0
2014-Apr-12 13:31N 39°05' E 009°02'0 0.0
2014-Apr-12 12:31N 39°05' E 009°02'0 0.0
2014-Apr-12 11:31N 39°05' E 009°02'0 0.0
2014-Apr-12 10:28N 39°05' E 009°02'0 0.0
2014-Apr-12 09:31N 39°05' E 009°02'0 0.0
2014-Apr-12 08:31N 39°05' E 009°02'0 0.0
2014-Apr-12 07:22N 39°05' E 009°02'0 0.0
2014-Apr-12 06:31N 39°05' E 009°02'0 0.0
2014-Apr-12 05:31N 39°05' E 009°02'0 0.0
2014-Apr-12 04:31N 39°05' E 009°02'0 0.0
2014-Apr-12 03:31N 39°05' E 009°02'0 0.0
2014-Apr-12 02:31N 39°05' E 009°02'0 0.0
2014-Apr-12 01:31N 39°05' E 009°02'0 0.0
2014-Apr-12 00:31N 39°05' E 009°02'0 0.0
2014-Apr-11 23:31N 39°05' E 009°02'0 0.0
2014-Apr-11 22:31N 39°05' E 009°02'0 0.0
2014-Apr-11 21:28N 39°05' E 009°02'0 0.0
2014-Apr-11 20:31N 39°05' E 009°02'0 0.0
2014-Apr-11 19:31N 39°05' E 009°02'0 0.0
2014-Apr-11 18:31N 39°05' E 009°02'0 0.0
2014-Apr-11 17:31N 39°05' E 009°02'0 0.0
2014-Apr-11 16:31N 39°05' E 009°02'0 0.0
2014-Apr-11 15:31N 39°05' E 009°02'0 0.2
2014-Apr-11 14:33N 39°05' E 009°02'3 2.7
2014-Apr-11 13:32N 39°04' E 009°05'0 0.0
2014-Apr-11 12:32N 39°04' E 009°05'0 0.0
2014-Apr-11 11:32N 39°04' E 009°05'0 0.0
2014-Apr-11 10:32N 39°04' E 009°05'0 0.0
2014-Apr-11 09:32N 39°04' E 009°05'0 0.0
2014-Apr-11 08:32N 39°04' E 009°05'0 0.0
2014-Apr-11 07:32N 39°04' E 009°05'0 0.0
2014-Apr-11 06:32N 39°04' E 009°05'0 0.0
2014-Apr-11 05:32N 39°04' E 009°05'0 0.0
2014-Apr-11 04:32N 39°04' E 009°05'0 0.1
2014-Apr-11 03:32N 39°04' E 009°05'0 0.1
2014-Apr-11 02:32N 39°04' E 009°05'0 0.0
2014-Apr-11 01:32N 39°04' E 009°05'0 0.0
2014-Apr-11 00:32N 39°04' E 009°05'0 0.1
2014-Apr-10 23:32N 39°04' E 009°05'0 0.0
2014-Apr-10 22:32N 39°04' E 009°05'0 0.0
2014-Apr-10 21:32N 39°04' E 009°05'0 0.0
2014-Apr-10 20:32N 39°04' E 009°05'0 0.0
2014-Apr-10 19:32N 39°04' E 009°05'0 0.0
2014-Apr-10 18:32N 39°04' E 009°05'0 0.0
2014-Apr-10 17:32N 39°04' E 009°05'0 0.0
2014-Apr-10 16:32N 39°04' E 009°05'0 0.0
2014-Apr-10 15:32N 39°04' E 009°05'0 0.0
2014-Apr-10 14:32N 39°04' E 009°05'0 0.0
2014-Apr-10 13:32N 39°04' E 009°05'0 0.0
2014-Apr-10 12:32N 39°04' E 009°05'0 0.0
2014-Apr-10 11:29N 39°04' E 009°05'0 0.0
2014-Apr-10 10:32N 39°04' E 009°05'0 0.1
2014-Apr-10 09:32N 39°04' E 009°05'0 0.2
2014-Apr-10 08:32N 39°04' E 009°05'0 0.0
2014-Apr-10 07:32N 39°04' E 009°05'0 0.1
2014-Apr-10 06:32N 39°04' E 009°05'0 0.0
2014-Apr-10 05:32N 39°04' E 009°05'0 0.0
2014-Apr-10 04:32N 39°04' E 009°05'0 0.0
2014-Apr-10 03:32N 39°04' E 009°05'0 0.0
2014-Apr-10 02:32N 39°04' E 009°05'0 0.0
2014-Apr-10 01:32N 39°04' E 009°05'0 0.0
2014-Apr-10 00:32N 39°04' E 009°05'0 0.0
2014-Apr-09 23:32N 39°04' E 009°05'0 0.0
2014-Apr-09 22:32N 39°04' E 009°05'0 0.0
2014-Apr-09 21:32N 39°04' E 009°05'0 0.0
2014-Apr-09 20:32N 39°04' E 009°05'0 0.0
2014-Apr-09 19:32N 39°04' E 009°05'0 0.0
2014-Apr-09 18:32N 39°03' E 009°05'0 0.0
2014-Apr-09 17:33N 39°04' E 009°05'0 0.0
2014-Apr-09 16:32N 39°04' E 009°05'0 0.0
2014-Apr-09 15:33N 39°04' E 009°05'4 4.2
2014-Apr-09 14:32N 39°02' E 009°10'8 8.3
2014-Apr-09 13:32N 39°02' E 009°21'1110.9
2014-Apr-09 12:32N 39°01' E 009°35'147 7.6
2014-Apr-08 17:09N 41°02' E 011°24'  

Dump ship's entire track history

sailing weather and tide predictions

Valtellina — ICKF — position and weather